createdAt,value
2023-05-07T00:00:23.168Z,100825.81
2023-05-07T00:02:27.177Z,100830.13
2023-05-07T00:04:37.836Z,100824.69
2023-05-07T00:06:42.301Z,100827.97
2023-05-07T00:08:46.250Z,100828.72
2023-05-07T00:10:49.984Z,100832.09
2023-05-07T00:12:53.746Z,100824.94
2023-05-07T00:14:57.452Z,100831.13
2023-05-07T00:17:01.358Z,100823.03
2023-05-07T00:19:05.285Z,100826.66
2023-05-07T00:21:10.409Z,100827.53
2023-05-07T00:23:14.192Z,100830.91
2023-05-07T00:25:18.061Z,100833.56
2023-05-07T00:27:21.586Z,100830.19
2023-05-07T00:29:25.246Z,100834.75
2023-05-07T00:31:28.900Z,100834.88
2023-05-07T00:33:32.623Z,100837.53
2023-05-07T00:35:36.320Z,100841.16
2023-05-07T00:37:41.752Z,100840.31
2023-05-07T00:39:45.566Z,100837.66
2023-05-07T00:41:49.143Z,100843.94
2023-05-07T00:43:53.353Z,100841.28
2023-05-07T00:45:57.114Z,100844.91
2023-05-07T00:48:03.390Z,100843.94
2023-05-07T00:50:08.617Z,100845.66
2023-05-07T00:52:15.471Z,100845.66
2023-05-07T00:54:20.687Z,100846.47
2023-05-07T00:56:25.492Z,100847.34
2023-05-07T00:58:29.322Z,100850.84
2023-05-07T01:00:32.934Z,100845.41
2023-05-07T01:02:37.374Z,100845.41
2023-05-07T01:04:41.656Z,100841.78
2023-05-07T01:06:47.401Z,100847.13
2023-05-07T01:08:54.085Z,100846.16
2023-05-07T01:11:00.348Z,100850.63
2023-05-07T01:13:04.832Z,100844.34
2023-05-07T01:15:10.547Z,100847.81
2023-05-07T01:17:14.677Z,100843.38
2023-05-07T01:19:20.635Z,100845.16
2023-05-07T01:21:28.894Z,100846.88
2023-05-07T01:23:38.182Z,100853.06
2023-05-07T01:25:41.886Z,100857.53
2023-05-07T01:27:46.390Z,100858.47
2023-05-07T01:29:50.217Z,100855.81
2023-05-07T01:31:55.068Z,100856.69
2023-05-07T01:34:00.781Z,100854.03
2023-05-07T01:36:07.684Z,100852.19
2023-05-07T01:38:11.912Z,100858.38
2023-05-07T01:40:17.643Z,100860.06
2023-05-07T01:42:21.398Z,100860.06
2023-05-07T01:44:25.696Z,100860.06
2023-05-07T01:46:29.778Z,100854.84
2023-05-07T01:48:34.828Z,100859.22
2023-05-07T01:50:39.999Z,100852.19
2023-05-07T01:52:43.882Z,100856.69
2023-05-07T01:54:47.664Z,100857.53
2023-05-07T01:56:52.733Z,100858.47
2023-05-07T01:58:56.827Z,100862.84
2023-05-07T02:01:00.506Z,100866.38
2023-05-07T02:03:04.761Z,100857.53
2023-05-07T02:05:16.871Z,100855.81
2023-05-07T02:07:23.725Z,100865.63
2023-05-07T02:09:27.392Z,100870.81
2023-05-07T02:11:31.335Z,100871.78
2023-05-07T02:13:36.997Z,100869.13
2023-05-07T02:15:40.772Z,100874.56
2023-05-07T02:18:02.431Z,100866.69
2023-05-07T02:20:08.470Z,100870.31
2023-05-07T02:22:12.682Z,100881.84
2023-05-07T02:24:16.592Z,100870.31
2023-05-07T02:26:22.737Z,100870.31
2023-05-07T02:28:26.654Z,100873.97
2023-05-07T02:30:41.168Z,100865.00
2023-05-07T02:32:45.897Z,100872.25
2023-05-07T02:34:52.557Z,100873.09
2023-05-07T02:36:56.828Z,100874.06
2023-05-07T02:39:03.800Z,100871.41
2023-05-07T02:41:07.815Z,100870.56
2023-05-07T02:43:11.917Z,100861.88
2023-05-07T02:45:18.960Z,100855.66
2023-05-07T02:47:25.040Z,100862.94
2023-05-07T02:49:28.893Z,100862.31
2023-05-07T02:51:33.261Z,100866.91
2023-05-07T02:53:39.919Z,100863.63
2023-05-07T02:55:43.660Z,100863.88
2023-05-07T02:57:47.228Z,100867.84
2023-05-07T02:59:50.756Z,100860.16
2023-05-07T03:01:56.337Z,100864.16
2023-05-07T03:04:01.274Z,100857.34
2023-05-07T03:06:04.682Z,100860.44
2023-05-07T03:08:08.357Z,100868.56
2023-05-07T03:10:12.440Z,100863.56
2023-05-07T03:12:17.057Z,100868.25
2023-05-07T03:14:20.716Z,100875.72
2023-05-07T03:16:24.429Z,100876.19
2023-05-07T03:18:28.137Z,100884.28
2023-05-07T03:20:34.018Z,100885.97
2023-05-07T03:22:37.796Z,100877.03
2023-05-07T03:24:41.820Z,100891.91
2023-05-07T03:26:45.515Z,100887.34
2023-05-07T03:28:49.308Z,100884.56
2023-05-07T03:30:54.899Z,100890.59
2023-05-07T03:32:59.125Z,100893.25
2023-05-07T03:35:03.431Z,100893.38
2023-05-07T03:37:08.698Z,100890.00
2023-05-07T03:39:12.366Z,100899.78
2023-05-07T03:41:18.194Z,100899.88
2023-05-07T03:43:23.164Z,100901.94
2023-05-07T03:45:34.577Z,100898.53
2023-05-07T03:47:49.504Z,100903.97
2023-05-07T03:49:56.401Z,100903.97
2023-05-07T03:52:01.680Z,100908.63
2023-05-07T03:54:07.904Z,100906.97
2023-05-07T03:56:11.789Z,100911.41
2023-05-07T03:58:17.879Z,100911.28
2023-05-07T04:00:23.310Z,100906.84
2023-05-07T04:02:27.066Z,100909.38
2023-05-07T04:04:34.148Z,100912.78
2023-05-07T04:06:38.712Z,100910.22
2023-05-07T04:08:42.409Z,100909.38
2023-05-07T04:10:47.648Z,100903.19
2023-05-07T04:12:51.350Z,100905.13
2023-05-07T04:14:58.817Z,100905.97
2023-05-07T04:17:02.780Z,100902.47
2023-05-07T04:19:06.957Z,100913.94
2023-05-07T04:21:16.990Z,100911.28
2023-05-07T04:23:21.242Z,100917.25
2023-05-07T04:25:27.886Z,100926.06
2023-05-07T04:27:38.996Z,100918.19
2023-05-07T04:29:43.754Z,100924.47
2023-05-07T04:31:50.013Z,100914.69
2023-05-07T04:33:53.854Z,100917.38
2023-05-07T04:35:57.698Z,100925.34
2023-05-07T04:38:02.800Z,100922.91
2023-05-07T04:40:08.578Z,100915.88
2023-05-07T04:42:17.013Z,100919.59
2023-05-07T04:44:22.048Z,100926.81
2023-05-07T04:46:26.413Z,100925.16
2023-05-07T04:48:32.003Z,100924.41
2023-05-07T04:50:37.229Z,100928.88
2023-05-07T04:52:41.610Z,100925.47
2023-05-07T04:54:45.735Z,100932.59
2023-05-07T04:56:49.529Z,100925.56
2023-05-07T04:58:53.278Z,100925.56
2023-05-07T05:01:00.585Z,100931.75
2023-05-07T05:03:04.779Z,100930.78
2023-05-07T05:05:09.658Z,100932.47
2023-05-07T05:07:13.365Z,100929.81
2023-05-07T05:09:17.329Z,100932.59
2023-05-07T05:11:22.071Z,100931.75
2023-05-07T05:13:25.805Z,100928.34
2023-05-07T05:15:30.296Z,100931.94
2023-05-07T05:17:37.791Z,100935.66
2023-05-07T05:19:42.611Z,100940.25
2023-05-07T05:21:46.366Z,100935.06
2023-05-07T05:23:50.519Z,100935.16
2023-05-07T05:25:58.969Z,100938.66
2023-05-07T05:28:05.195Z,100938.88
2023-05-07T05:30:12.482Z,100944.22
2023-05-07T05:32:17.007Z,100938.88
2023-05-07T05:34:22.973Z,100940.56
2023-05-07T05:36:27.163Z,100938.78
2023-05-07T05:38:34.386Z,100944.81
2023-05-07T05:40:37.929Z,100939.31
2023-05-07T05:42:41.401Z,100940.56
2023-05-07T05:44:47.049Z,100936.50
2023-05-07T05:46:51.671Z,100943.19
2023-05-07T05:48:55.722Z,100939.59
2023-05-07T05:51:00.957Z,100934.03
2023-05-07T05:53:05.126Z,100951.59
2023-05-07T05:55:09.625Z,100941.47
2023-05-07T05:57:14.637Z,100941.88
2023-05-07T05:59:18.550Z,100946.31
2023-05-07T06:01:22.453Z,100938.41
2023-05-07T06:03:28.427Z,100947.75
2023-05-07T06:05:33.348Z,100943.56
2023-05-07T06:07:38.601Z,100947.34
2023-05-07T06:09:42.636Z,100945.09
2023-05-07T06:11:46.356Z,100943.66
2023-05-07T06:13:50.715Z,100951.72
2023-05-07T06:15:54.397Z,100956.28
2023-05-07T06:17:58.743Z,100954.53
2023-05-07T06:20:02.541Z,100950.72
2023-05-07T06:22:06.251Z,100949.53
2023-05-07T06:24:12.944Z,100955.13
2023-05-07T06:26:17.284Z,100958.19
2023-05-07T06:28:24.139Z,100966.13
2023-05-07T06:30:29.188Z,100957.94
2023-05-07T06:32:33.054Z,100971.31
2023-05-07T06:34:36.762Z,100972.28
2023-05-07T06:36:40.222Z,100968.06
2023-05-07T06:39:02.880Z,100979.34
2023-05-07T06:41:08.601Z,100977.47
2023-05-07T06:43:12.404Z,100985.28
2023-05-07T06:45:26.362Z,100982.13
2023-05-07T06:47:32.253Z,100985.41
2023-05-07T06:49:35.995Z,100986.25
2023-05-07T06:51:39.836Z,100991.75
2023-05-07T06:53:43.948Z,100987.38
2023-05-07T06:55:48.538Z,100998.09
2023-05-07T06:57:55.900Z,101000.78
2023-05-07T07:00:01.065Z,100996.69
2023-05-07T07:02:05.061Z,100992.19
2023-05-07T07:04:08.899Z,101000.03
2023-05-07T07:06:13.360Z,100998.63
2023-05-07T07:08:19.237Z,101004.56
2023-05-07T07:10:23.393Z,101004.72
2023-05-07T07:12:30.098Z,101005.38
2023-05-07T07:14:35.132Z,101017.00
2023-05-07T07:16:38.978Z,101017.72
2023-05-07T07:18:42.749Z,101013.94
2023-05-07T07:20:46.489Z,101012.47
2023-05-07T07:22:51.164Z,101008.66
2023-05-07T07:24:55.274Z,101005.44
2023-05-07T07:27:00.531Z,101010.94
2023-05-07T07:29:04.659Z,101011.75
2023-05-07T07:31:10.044Z,101012.72
2023-05-07T07:33:13.775Z,101014.34
2023-05-07T07:35:17.730Z,101015.06
2023-05-07T07:37:22.702Z,101014.69
2023-05-07T07:39:26.970Z,101015.03
2023-05-07T07:41:33.492Z,101016.16
2023-05-07T07:43:37.940Z,101008.78
2023-05-07T07:45:43.036Z,101011.47
2023-05-07T07:47:48.351Z,101006.72
2023-05-07T07:49:52.435Z,101009.63
2023-05-07T07:51:57.681Z,101011.56
2023-05-07T07:54:03.603Z,101022.06
2023-05-07T07:56:09.458Z,101018.38
2023-05-07T07:58:13.247Z,101017.25
2023-05-07T08:00:18.921Z,101013.19
2023-05-07T08:02:25.214Z,101009.38
2023-05-07T08:04:31.811Z,101015.31
2023-05-07T08:06:39.738Z,101016.84
2023-05-07T08:08:48.137Z,101024.91
2023-05-07T08:10:53.306Z,101014.19
2023-05-07T08:13:05.167Z,101010.78
2023-05-07T08:15:11.724Z,101007.66
2023-05-07T08:17:17.206Z,101002.28
2023-05-07T08:19:22.907Z,101010.75
2023-05-07T08:21:29.491Z,101003.59
2023-05-07T08:23:33.737Z,101003.72
2023-05-07T08:25:38.683Z,101002.91
2023-05-07T08:27:42.967Z,101002.03
2023-05-07T08:29:48.715Z,101007.81
2023-05-07T08:31:55.276Z,101003.19
2023-05-07T08:33:59.463Z,101008.19
2023-05-07T08:36:03.606Z,101011.97
2023-05-07T08:38:09.053Z,101003.41
2023-05-07T08:40:14.740Z,101004.25
2023-05-07T08:42:21.347Z,101012.31
2023-05-07T08:44:27.833Z,101019.13
2023-05-07T08:46:35.171Z,101019.50
2023-05-07T08:48:39.497Z,101023.16
2023-05-07T08:50:48.888Z,101017.25
2023-05-07T08:52:53.389Z,101019.22
2023-05-07T08:55:00.075Z,101025.03
2023-05-07T08:57:04.042Z,101028.00
2023-05-07T08:59:10.611Z,101030.28
2023-05-07T09:01:16.871Z,101032.09
2023-05-07T09:03:23.728Z,101023.63
2023-05-07T09:05:29.897Z,101023.47
2023-05-07T09:07:34.222Z,101025.44
2023-05-07T09:09:40.146Z,101028.97
2023-05-07T09:11:46.380Z,101031.94
2023-05-07T09:13:56.846Z,101031.38
2023-05-07T09:16:13.528Z,101027.72
2023-05-07T09:18:19.684Z,101021.06
2023-05-07T09:20:29.090Z,101028.44
2023-05-07T09:22:34.847Z,101032.22
2023-05-07T09:24:42.785Z,101029.13
2023-05-07T09:26:50.148Z,101035.47
2023-05-07T09:28:54.850Z,101037.28
2023-05-07T09:30:58.883Z,101037.66
2023-05-07T09:33:04.045Z,101026.13
2023-05-07T09:35:18.415Z,101030.97
2023-05-07T09:37:28.659Z,101031.63
2023-05-07T09:39:42.573Z,101032.84
2023-05-07T09:41:47.903Z,101029.19
2023-05-07T09:44:01.531Z,101028.84
2023-05-07T09:46:16.501Z,101034.75
2023-05-07T09:48:28.254Z,101037.38
2023-05-07T09:50:38.018Z,101034.28
2023-05-07T09:52:43.073Z,101021.88
2023-05-07T09:54:50.947Z,101023.81
2023-05-07T09:57:00.145Z,101024.88
2023-05-07T09:59:09.729Z,101025.03
2023-05-07T10:01:15.384Z,101020.78
2023-05-07T10:03:21.849Z,101024.19
2023-05-07T10:05:33.519Z,101024.56
2023-05-07T10:07:39.593Z,101022.91
2023-05-07T10:09:49.054Z,101019.25
2023-05-07T10:12:05.017Z,101007.38
2023-05-07T10:14:11.959Z,101006.13
2023-05-07T10:16:20.401Z,101002.59
2023-05-07T10:18:31.200Z,101000.72
2023-05-07T10:20:43.166Z,100994.44
2023-05-07T10:22:53.204Z,100997.66
2023-05-07T10:25:08.929Z,101000.38
2023-05-07T10:27:15.945Z,100992.44
2023-05-07T10:29:40.318Z,100997.41
2023-05-07T10:31:58.356Z,101001.47
2023-05-07T10:34:06.148Z,101002.72
2023-05-07T10:36:10.087Z,101006.44
2023-05-07T10:38:14.000Z,101010.06
2023-05-07T10:40:22.695Z,101023.47
2023-05-07T10:42:28.427Z,101023.06
2023-05-07T10:44:37.198Z,101013.03
2023-05-07T10:46:45.896Z,101015.72
2023-05-07T10:49:12.708Z,101018.81
2023-05-07T10:51:42.541Z,101008.94
2023-05-07T10:54:22.238Z,101005.69
2023-05-07T10:56:33.830Z,101004.56
2023-05-07T10:58:45.859Z,101009.38
2023-05-07T11:01:03.659Z,101010.94
2023-05-07T11:03:13.235Z,101004.78
2023-05-07T11:05:23.316Z,101009.72
2023-05-07T11:07:34.248Z,101010.53
2023-05-07T11:10:02.885Z,101003.09
2023-05-07T11:12:54.832Z,101010.97
2023-05-07T11:15:08.221Z,101008.75
2023-05-07T11:17:15.530Z,101017.41
2023-05-07T11:19:52.467Z,101014.16
2023-05-07T11:22:41.192Z,101021.66
2023-05-07T11:25:06.000Z,101010.06
2023-05-07T11:27:09.948Z,101013.31
2023-05-07T11:29:15.503Z,101009.38
2023-05-07T11:31:24.855Z,101010.34
2023-05-07T11:33:31.188Z,101022.19
2023-05-07T11:35:37.628Z,101008.09
2023-05-07T11:37:48.484Z,101007.41
2023-05-07T11:39:55.773Z,100998.50
2023-05-07T11:41:59.858Z,100998.94
2023-05-07T11:44:03.937Z,101005.56
2023-05-07T11:46:10.602Z,101004.31
2023-05-07T11:48:15.321Z,101018.97
2023-05-07T11:50:21.025Z,101020.53
2023-05-07T11:52:26.312Z,101012.03
2023-05-07T11:54:38.149Z,101024.34
2023-05-07T11:56:42.766Z,101015.00
2023-05-07T11:58:48.299Z,101005.13
2023-05-07T12:00:52.465Z,101015.69
2023-05-07T12:02:56.482Z,101010.63
2023-05-07T12:05:03.821Z,101019.97
2023-05-07T12:07:13.681Z,101021.38
2023-05-07T12:09:17.311Z,101019.78
2023-05-07T12:11:26.398Z,101016.41
2023-05-07T12:13:31.139Z,101015.53
2023-05-07T12:15:38.083Z,101019.22
2023-05-07T12:17:44.778Z,101019.09
2023-05-07T12:19:49.609Z,101006.09
2023-05-07T12:21:52.944Z,101012.72
2023-05-07T12:23:58.722Z,101003.66
2023-05-07T12:26:04.374Z,101013.78
2023-05-07T12:28:10.957Z,101011.88
2023-05-07T12:30:16.035Z,101009.09
2023-05-07T12:32:21.026Z,101007.88
2023-05-07T12:34:25.490Z,101004.53
2023-05-07T12:36:38.813Z,101002.56
2023-05-07T12:38:43.217Z,101004.09
2023-05-07T12:40:52.711Z,100993.47
2023-05-07T12:42:58.498Z,100992.22
2023-05-07T12:45:10.900Z,100984.78
2023-05-07T12:47:16.508Z,100982.28
2023-05-07T12:49:20.288Z,100978.25
2023-05-07T12:51:26.036Z,100980.13
2023-05-07T12:53:31.045Z,100982.44
2023-05-07T12:55:35.174Z,100984.28
2023-05-07T12:57:45.506Z,100983.97
2023-05-07T12:59:49.684Z,100986.50
2023-05-07T13:01:53.427Z,100988.53
2023-05-07T13:03:58.819Z,100999.94
2023-05-07T13:06:04.777Z,100997.09
2023-05-07T13:08:10.842Z,100988.69
2023-05-07T13:10:14.567Z,100996.00
2023-05-07T13:12:18.433Z,100999.84
2023-05-07T13:14:23.949Z,100999.00
2023-05-07T13:16:27.922Z,101004.69
2023-05-07T13:18:33.747Z,101002.97
2023-05-07T13:20:37.858Z,101014.56
2023-05-07T13:22:41.910Z,101012.03
2023-05-07T13:24:45.841Z,101016.03
2023-05-07T13:26:49.712Z,101026.91
2023-05-07T13:28:53.672Z,101022.59
2023-05-07T13:30:58.856Z,101024.38
2023-05-07T13:33:02.998Z,101024.81
2023-05-07T13:35:07.732Z,101027.13
2023-05-07T13:37:12.429Z,101033.13
2023-05-07T13:39:15.796Z,101028.06
2023-05-07T13:41:20.219Z,101039.03
2023-05-07T13:43:23.961Z,101033.66
2023-05-07T13:45:28.138Z,101035.34
2023-05-07T13:47:33.483Z,101037.88
2023-05-07T13:49:37.431Z,101034.91
2023-05-07T13:51:41.526Z,101033.13
2023-05-07T13:53:45.501Z,101022.66
2023-05-07T13:55:49.186Z,101022.41
2023-05-07T13:57:59.849Z,101026.91
2023-05-07T14:00:04.071Z,101010.00
2023-05-07T14:02:09.406Z,101010.38
2023-05-07T14:04:15.235Z,101008.50
2023-05-07T14:06:19.084Z,101008.44
2023-05-07T14:08:24.306Z,101008.94
2023-05-07T14:10:28.418Z,101008.78
2023-05-07T14:12:32.334Z,101004.06
2023-05-07T14:14:36.433Z,101005.91
2023-05-07T14:16:40.707Z,101003.41
2023-05-07T14:18:44.795Z,101004.81
2023-05-07T14:20:50.402Z,101004.97
2023-05-07T14:22:54.927Z,101010.50
2023-05-07T14:25:06.811Z,101005.28
2023-05-07T14:27:11.226Z,101005.59
2023-05-07T14:29:16.805Z,101012.63
2023-05-07T14:31:20.527Z,100997.78
2023-05-07T14:33:24.219Z,100998.78
2023-05-07T14:35:28.052Z,100993.09
2023-05-07T14:37:33.315Z,100996.59
2023-05-07T14:39:37.209Z,100991.22
2023-05-07T14:41:41.793Z,100984.03
2023-05-07T14:43:51.170Z,100987.38
2023-05-07T14:45:55.311Z,100975.31
2023-05-07T14:47:59.291Z,100984.59
2023-05-07T14:50:03.509Z,100987.84
2023-05-07T14:52:09.393Z,100994.03
2023-05-07T14:54:14.639Z,100983.44
2023-05-07T14:56:18.697Z,100979.22
2023-05-07T14:58:22.798Z,100975.53
2023-05-07T15:00:26.875Z,100980.91
2023-05-07T15:02:31.973Z,100977.72
2023-05-07T15:04:36.022Z,100978.16
2023-05-07T15:06:40.276Z,100991.09
2023-05-07T15:08:44.018Z,100978.59
2023-05-07T15:10:49.477Z,100991.78
2023-05-07T15:12:53.505Z,100985.34
2023-05-07T15:14:57.499Z,100990.66
2023-05-07T15:17:01.627Z,100988.03
2023-05-07T15:19:05.468Z,100992.31
2023-05-07T15:21:09.708Z,100988.25
2023-05-07T15:23:15.273Z,100997.63
2023-05-07T15:25:22.592Z,101000.94
2023-05-07T15:27:28.044Z,101003.53
2023-05-07T15:29:31.984Z,101002.81
2023-05-07T15:31:38.681Z,101000.56
2023-05-07T15:33:44.481Z,100999.00
2023-05-07T15:35:48.957Z,101009.34
2023-05-07T15:37:53.644Z,101002.59
2023-05-07T15:39:57.985Z,101010.25
2023-05-07T15:42:02.601Z,101017.91
2023-05-07T15:44:07.936Z,101013.81
2023-05-07T15:46:11.821Z,101021.19
2023-05-07T15:48:15.953Z,101021.50
2023-05-07T15:50:19.916Z,101022.78
2023-05-07T15:52:23.514Z,101024.06
2023-05-07T15:54:27.246Z,101009.25
2023-05-07T15:56:33.964Z,101018.28
2023-05-07T15:58:38.491Z,101017.31
2023-05-07T16:00:43.798Z,101021.66
2023-05-07T16:02:47.714Z,101019.69
2023-05-07T16:04:51.532Z,101004.72
2023-05-07T16:06:57.036Z,101012.06
2023-05-07T16:09:00.932Z,101007.84
2023-05-07T16:11:05.256Z,101007.44
2023-05-07T16:13:09.116Z,101010.44
2023-05-07T16:15:13.268Z,101009.72
2023-05-07T16:17:19.405Z,101011.41
2023-05-07T16:19:24.287Z,101010.69
2023-05-07T16:21:28.112Z,101009.72
2023-05-07T16:23:33.092Z,101007.03
2023-05-07T16:25:36.832Z,100996.03
2023-05-07T16:27:40.631Z,100994.63
2023-05-07T16:29:45.033Z,100991.38
2023-05-07T16:31:48.752Z,100990.84
2023-05-07T16:33:53.964Z,100989.16
2023-05-07T16:35:57.552Z,100987.59
2023-05-07T16:38:01.348Z,100984.22
2023-05-07T16:40:07.753Z,100993.25
2023-05-07T16:42:11.548Z,100986.19
2023-05-07T16:44:15.317Z,100989.03
2023-05-07T16:46:19.477Z,100982.97
2023-05-07T16:48:23.883Z,100986.78
2023-05-07T16:50:29.475Z,100989.16
2023-05-07T16:52:33.790Z,100988.75
2023-05-07T16:54:38.091Z,100991.16
2023-05-07T16:56:42.723Z,100987.06
2023-05-07T16:58:46.686Z,100982.84
2023-05-07T17:00:51.351Z,100983.81
2023-05-07T17:02:56.207Z,100985.81
2023-05-07T17:05:00.141Z,100984.84
2023-05-07T17:07:05.481Z,100974.09
2023-05-07T17:09:11.122Z,100983.13
2023-05-07T17:11:14.877Z,100983.13
2023-05-07T17:13:18.682Z,100973.53
2023-05-07T17:15:22.436Z,100967.50
2023-05-07T17:17:26.286Z,100972.56
2023-05-07T17:19:30.307Z,100967.03
2023-05-07T17:21:34.831Z,100968.91
2023-05-07T17:23:39.810Z,100957.59
2023-05-07T17:25:45.775Z,100964.50
2023-05-07T17:27:49.779Z,100959.97
2023-05-07T17:29:53.501Z,100960.13
2023-05-07T17:31:57.205Z,100953.22
2023-05-07T17:34:01.468Z,100951.25
2023-05-07T17:36:05.862Z,100960.44
2023-05-07T17:38:09.791Z,100958.88
2023-05-07T17:40:15.565Z,100956.91
2023-05-07T17:42:20.361Z,100955.63
2023-05-07T17:44:24.999Z,100949.84
2023-05-07T17:46:28.993Z,100946.34
2023-05-07T17:48:32.768Z,100943.94
2023-05-07T17:50:36.954Z,100949.56
2023-05-07T17:52:42.268Z,100946.50
2023-05-07T17:54:46.623Z,100945.34
2023-05-07T17:56:52.623Z,100952.97
2023-05-07T17:58:59.257Z,100950.41
2023-05-07T18:01:03.879Z,100951.69
2023-05-07T18:03:09.427Z,100940.72
2023-05-07T18:05:13.547Z,100938.28
2023-05-07T18:07:17.263Z,100937.16
2023-05-07T18:09:24.331Z,100946.56
2023-05-07T18:11:32.617Z,100934.16
2023-05-07T18:13:38.698Z,100937.94
2023-05-07T18:15:43.385Z,100939.06
2023-05-07T18:17:47.167Z,100944.84
2023-05-07T18:19:55.019Z,100947.78
2023-05-07T18:21:59.945Z,100938.44
2023-05-07T18:24:05.151Z,100936.63
2023-05-07T18:26:09.056Z,100930.53
2023-05-07T18:28:13.526Z,100935.75
2023-05-07T18:30:19.791Z,100927.03
2023-05-07T18:32:24.239Z,100932.53
2023-05-07T18:34:28.631Z,100928.16
2023-05-07T18:36:32.905Z,100929.13
2023-05-07T18:38:37.261Z,100936.19
2023-05-07T18:40:44.281Z,100937.88
2023-05-07T18:42:48.414Z,100939.81
2023-05-07T18:44:52.863Z,100940.63
2023-05-07T18:46:58.607Z,100945.66
2023-05-07T18:49:02.947Z,100945.38
2023-05-07T18:51:08.809Z,100945.19
2023-05-07T18:53:13.047Z,100943.06
2023-05-07T18:55:17.379Z,100943.47
2023-05-07T18:57:21.082Z,100937.53
2023-05-07T18:59:25.350Z,100944.13
2023-05-07T19:01:29.528Z,100948.75
2023-05-07T19:03:34.586Z,100947.75
2023-05-07T19:05:38.467Z,100951.03
2023-05-07T19:07:42.371Z,100952.59
2023-05-07T19:10:01.211Z,100969.47
2023-05-07T19:12:08.886Z,100961.59
2023-05-07T19:14:12.797Z,100960.88
2023-05-07T19:16:16.715Z,100957.75
2023-05-07T19:18:21.173Z,100949.75
2023-05-07T19:20:27.075Z,100952.97
2023-05-07T19:22:30.776Z,100939.97
2023-05-07T19:24:35.194Z,100940.84
2023-05-07T19:26:39.790Z,100947.31
2023-05-07T19:28:45.881Z,100940.13
2023-05-07T19:30:53.013Z,100938.00
2023-05-07T19:32:57.856Z,100946.50
2023-05-07T19:35:01.847Z,100956.50
2023-05-07T19:37:07.399Z,100958.19
2023-05-07T19:39:11.904Z,100959.03
2023-05-07T19:41:16.134Z,100951.63
2023-05-07T19:43:20.626Z,100957.53
2023-05-07T19:45:24.964Z,100949.19
2023-05-07T19:47:30.181Z,100945.06
2023-05-07T19:49:33.777Z,100951.28
2023-05-07T19:51:37.267Z,100944.59
2023-05-07T19:53:42.108Z,100944.88
2023-05-07T19:55:46.000Z,100944.41
2023-05-07T19:57:50.398Z,100949.31
2023-05-07T19:59:54.181Z,100949.53
2023-05-07T20:01:58.300Z,100962.44
2023-05-07T20:04:04.112Z,100968.03
2023-05-07T20:06:08.744Z,100962.69
2023-05-07T20:08:12.547Z,100966.59
2023-05-07T20:10:18.355Z,100963.22
2023-05-07T20:12:22.588Z,100970.25
2023-05-07T20:14:28.040Z,100979.81
2023-05-07T20:16:32.062Z,100967.78
2023-05-07T20:18:36.316Z,100967.66
2023-05-07T20:20:40.340Z,100960.50
2023-05-07T20:22:43.958Z,100962.81
2023-05-07T20:24:47.813Z,100959.31
2023-05-07T20:26:52.903Z,100971.69
2023-05-07T20:28:56.641Z,100969.72
2023-05-07T20:31:00.369Z,100959.03
2023-05-07T20:33:04.919Z,100954.56
2023-05-07T20:35:09.262Z,100962.94
2023-05-07T20:37:14.576Z,100959.81
2023-05-07T20:39:18.832Z,100960.06
2023-05-07T20:41:25.214Z,100952.31
2023-05-07T20:43:30.345Z,100957.19
2023-05-07T20:45:34.764Z,100950.88
2023-05-07T20:47:38.996Z,100949.91
2023-05-07T20:49:43.205Z,100955.94
2023-05-07T20:51:47.025Z,100947.94
2023-05-07T20:53:50.710Z,100950.75
2023-05-07T20:55:54.444Z,100953.53
2023-05-07T20:57:58.423Z,100958.41
2023-05-07T21:00:04.302Z,100943.00
2023-05-07T21:02:09.245Z,100945.22
2023-05-07T21:04:13.680Z,100951.41
2023-05-07T21:06:18.138Z,100953.09
2023-05-07T21:08:22.837Z,100947.75
2023-05-07T21:10:26.871Z,100945.09
2023-05-07T21:12:30.986Z,100946.91
2023-05-07T21:14:37.018Z,100949.47
2023-05-07T21:16:43.253Z,100947.53
2023-05-07T21:18:50.080Z,100943.78
2023-05-07T21:20:53.990Z,100933.59
2023-05-07T21:22:57.757Z,100940.03
2023-05-07T21:25:01.887Z,100933.25
2023-05-07T21:27:05.903Z,100939.06
2023-05-07T21:29:10.290Z,100928.66
2023-05-07T21:31:15.360Z,100926.34
2023-05-07T21:33:20.929Z,100928.03
2023-05-07T21:35:24.753Z,100934.34
2023-05-07T21:37:28.617Z,100922.13
2023-05-07T21:39:32.410Z,100922.59
2023-05-07T21:41:36.609Z,100928.88
2023-05-07T21:43:40.584Z,100926.00
2023-05-07T21:45:44.313Z,100923.22
2023-05-07T21:47:48.272Z,100920.03
2023-05-07T21:49:53.573Z,100910.25
2023-05-07T21:51:57.373Z,100905.88
2023-05-07T21:54:01.346Z,100903.34
2023-05-07T21:56:05.328Z,100907.56
2023-05-07T21:58:08.952Z,100890.00
2023-05-07T22:00:13.923Z,100901.25
2023-05-07T22:02:17.987Z,100889.16
2023-05-07T22:04:21.757Z,100892.41
2023-05-07T22:06:27.659Z,100886.72
2023-05-07T22:08:31.559Z,100878.25
2023-05-07T22:10:35.350Z,100865.41
2023-05-07T22:12:39.225Z,100864.19
2023-05-07T22:14:44.712Z,100858.38
2023-05-07T22:16:48.991Z,100857.53
2023-05-07T22:18:53.165Z,100859.00
2023-05-07T22:20:57.074Z,100853.53
2023-05-07T22:23:02.481Z,100852.81
2023-05-07T22:25:07.324Z,100848.47
2023-05-07T22:27:11.118Z,100831.34
2023-05-07T22:29:14.983Z,100828.22
2023-05-07T22:31:18.999Z,100841.91
2023-05-07T22:33:23.908Z,100832.31
2023-05-07T22:35:28.058Z,100826.38
2023-05-07T22:37:32.127Z,100817.03
2023-05-07T22:39:37.757Z,100816.78
2023-05-07T22:41:42.139Z,100826.13
2023-05-07T22:43:45.876Z,100826.00
2023-05-07T22:45:50.116Z,100832.16
2023-05-07T22:47:54.414Z,100827.56
2023-05-07T22:49:58.723Z,100835.66
2023-05-07T22:52:02.894Z,100849.13
2023-05-07T22:54:08.506Z,100856.91
2023-05-07T22:56:14.178Z,100852.31
2023-05-07T22:58:18.891Z,100849.53
2023-05-07T23:00:24.429Z,100842.38
2023-05-07T23:02:29.439Z,100837.16
2023-05-07T23:04:34.167Z,100845.97
2023-05-07T23:06:38.115Z,100847.63
2023-05-07T23:08:41.791Z,100841.81
2023-05-07T23:10:45.632Z,100835.28
2023-05-07T23:12:50.965Z,100839.53
2023-05-07T23:14:55.009Z,100828.66
2023-05-07T23:16:59.001Z,100836.06
2023-05-07T23:19:02.905Z,100828.34
2023-05-07T23:21:07.203Z,100824.47
2023-05-07T23:23:11.080Z,100823.13
2023-05-07T23:25:14.578Z,100828.00
2023-05-07T23:27:18.615Z,100820.47
2023-05-07T23:29:23.987Z,100818.66
2023-05-07T23:31:27.786Z,100820.84
2023-05-07T23:33:31.608Z,100821.56
2023-05-07T23:35:35.293Z,100824.84
2023-05-07T23:37:39.432Z,100827.84
2023-05-07T23:39:43.111Z,100826.38
2023-05-07T23:41:47.111Z,100823.22
2023-05-07T23:43:51.311Z,100812.78
2023-05-07T23:45:56.542Z,100805.88
2023-05-07T23:48:00.405Z,100798.97
2023-05-07T23:50:04.769Z,100791.22
2023-05-07T23:52:08.350Z,100804.41
2023-05-07T23:54:12.184Z,100812.53